Time;durP1;ratioP1;P1;durP2;ratioP2;P2;SDS_P1;SDS_P2;PMS_P1;PMS_P2;Temp;Humidity;BMP_temperature;BMP_pressure;BME280_temperature;BME280_humidity;BME280_pressure;Samples;Min_cycle;Max_cycle;Signal;HPM_P1;HPM_P2
2024/03/16 00:01:23;;;;;;;;;;;;;;;18.23;67.28;101281.09;7388370;19;1503;-36
2024/03/16 00:03:54;;;;;;;;;;;;;;;18.29;67.34;101280.63;7387579;19;1204;-36
2024/03/16 00:06:23;;;;;;;;;;;;;;;18.26;67.21;101283.56;7386627;19;1874;-36
2024/03/16 00:08:51;;;;;;;;;;;;;;;18.28;67.25;101278.06;7387864;19;1489;-35
2024/03/16 00:11:20;;;;;;;;;;;;;;;18.28;67.16;101275.38;7388036;19;1354;-36
2024/03/16 00:13:48;;;;;;;;;;;;;;;18.20;67.55;101278.66;7389474;19;995;-35
2024/03/16 00:16:17;;;;;;;;;;;;;;;18.15;67.59;101274.66;7388346;19;1191;-35
2024/03/16 00:18:45;;;;;;;;;;;;;;;18.19;67.66;101262.72;7387460;19;1440;-36
2024/03/16 00:21:16;;;;;;;;;;;;;;;18.20;67.34;101277.81;7387165;19;1293;-36
2024/03/16 00:23:45;;;;;;;;;;;;;;;18.18;67.45;101285.94;7388488;19;1138;-36
2024/03/16 00:26:14;;;;;;;;;;;;;;;18.26;67.26;101283.56;7387092;19;1838;-36
2024/03/16 00:28:42;;;;;;;;;;;;;;;18.24;67.11;101272.13;7387158;19;1464;-36
2024/03/16 00:31:13;;;;;;;;;;;;;;;18.21;67.14;101276.84;7386715;19;1589;-35
2024/03/16 00:33:41;;;;;;;;;;;;;;;18.20;67.27;101267.94;7386929;19;1542;-36
2024/03/16 00:36:10;;;;;;;;;;;;;;;18.25;67.27;101270.28;7386796;19;1224;-35
2024/03/16 00:38:42;;;;;;;;;;;;;;;18.20;67.16;101267.94;7386190;19;1630;-35
2024/03/16 00:41:10;;;;;;;;;;;;;;;18.19;67.39;101276.97;7386859;19;1388;-35
2024/03/16 00:43:38;;;;;;;;;;;;;;;18.18;67.27;101269.88;7386724;19;1825;-35
2024/03/16 00:46:07;;;;;;;;;;;;;;;18.19;67.35;101266.25;7385798;19;1873;-35
2024/03/16 00:48:36;;;;;;;;;;;;;;;18.05;67.46;101253.94;7386525;19;1520;-35
2024/03/16 00:51:05;;;;;;;;;;;;;;;18.23;67.27;101267.72;7386923;19;1377;-35
2024/03/16 00:53:33;;;;;;;;;;;;;;;18.10;67.34;101256.25;7370835;19;2016;-35
2024/03/16 00:56:04;;;;;;;;;;;;;;;18.18;67.35;101259.19;7386716;19;1523;-35
2024/03/16 00:58:33;;;;;;;;;;;;;;;18.16;67.29;101270.97;7386102;19;1374;-35
2024/03/16 01:01:03;;;;;;;;;;;;;;;18.17;67.28;101260.16;7386767;19;1571;-36
2024/03/16 01:03:31;;;;;;;;;;;;;;;18.12;67.46;101277.53;7385907;19;1572;-35
2024/03/16 01:06:00;;;;;;;;;;;;;;;18.11;67.24;101268.66;7384809;19;1863;-35
2024/03/16 01:08:28;;;;;;;;;;;;;;;18.11;67.24;101273.19;7387237;19;1264;-35
2024/03/16 01:10:57;;;;;;;;;;;;;;;18.17;67.30;101267.34;7387365;19;1813;-36
2024/03/16 01:13:28;;;;;;;;;;;;;;;18.20;66.88;101265.25;7386431;19;1556;-35
2024/03/16 01:15:57;;;;;;;;;;;;;;;18.20;67.12;101267.94;7384482;19;1425;-35
2024/03/16 01:18:25;;;;;;;;;;;;;;;18.22;67.07;101262.47;7386745;19;1463;-35
2024/03/16 01:20:53;;;;;;;;;;;;;;;18.22;66.81;101255.31;7384410;19;1617;-35
2024/03/16 01:23:22;;;;;;;;;;;;;;;18.20;66.72;101269.78;7386264;19;1255;-35
2024/03/16 01:25:51;;;;;;;;;;;;;;;18.16;66.83;101266.47;7385236;19;1838;-35
2024/03/16 01:28:20;;;;;;;;;;;;;;;18.17;67.05;101262.84;7386354;19;1553;-35
2024/03/16 01:30:51;;;;;;;;;;;;;;;18.14;67.28;101255.03;7385274;19;1127;-35
2024/03/16 01:33:20;;;;;;;;;;;;;;;18.10;67.29;101261.59;7385858;19;1384;-35
2024/03/16 01:35:49;;;;;;;;;;;;;;;18.09;67.34;101262.56;7385786;19;1548;-35
2024/03/16 01:38:18;;;;;;;;;;;;;;;17.98;67.35;101267.88;7385443;19;1231;-35
2024/03/16 01:40:46;;;;;;;;;;;;;;;17.95;67.66;101262.78;7385704;19;1559;-35
2024/03/16 01:43:15;;;;;;;;;;;;;;;18.08;67.20;101267.09;7386492;19;1255;-35
2024/03/16 01:45:44;;;;;;;;;;;;;;;18.07;67.13;101272.56;7384208;19;1842;-36
2024/03/16 01:48:15;;;;;;;;;;;;;;;18.03;67.33;101268.41;7385298;19;1335;-36
2024/03/16 01:50:44;;;;;;;;;;;;;;;18.12;67.23;101273.03;7385133;19;1450;-36
2024/03/16 01:53:13;;;;;;;;;;;;;;;17.91;67.47;101277.38;7371935;19;1271;-36
2024/03/16 01:55:42;;;;;;;;;;;;;;;17.98;67.57;101273.25;7385722;19;1487;-36
2024/03/16 01:58:10;;;;;;;;;;;;;;;18.06;67.44;101261.00;7385557;19;1441;-36
2024/03/16 02:00:40;;;;;;;;;;;;;;;18.01;67.48;101281.06;7385647;19;1129;-36
2024/03/16 02:03:09;;;;;;;;;;;;;;;17.92;67.73;101276.38;7385718;19;1000;-35
2024/03/16 02:05:41;;;;;;;;;;;;;;;18.15;67.35;101263.94;7383944;19;1853;-35
2024/03/16 02:08:11;;;;;;;;;;;;;;;18.72;65.66;101286.28;7384652;19;1500;-36
2024/03/16 02:10:40;;;;;;;;;;;;;;;19.24;64.44;101266.94;7382949;19;1252;-36
2024/03/16 02:13:08;;;;;;;;;;;;;;;19.66;63.57;101263.53;7384721;19;1650;-38
2024/03/16 02:15:37;;;;;;;;;;;;;;;19.86;62.75;101273.47;7383492;19;1747;-36
2024/03/16 02:18:09;;;;;;;;;;;;;;;19.84;62.99;101251.25;7392678;19;1283;-36
2024/03/16 02:20:40;;;;;;;;;;;;;;;19.76;63.08;101260.94;7391620;19;1516;-36
2024/03/16 02:23:11;;;;;;;;;;;;;;;19.80;63.04;101265.94;7392978;19;1173;-36
2024/03/16 02:25:40;;;;;;;;;;;;;;;19.88;62.90;101264.44;7391339;19;1859;-36
2024/03/16 02:28:09;;;;;;;;;;;;;;;19.99;62.89;101269.72;7391483;19;1535;-36
2024/03/16 02:30:37;;;;;;;;;;;;;;;20.11;62.34;101274.06;7391103;19;1516;-36
2024/03/16 02:33:07;;;;;;;;;;;;;;;20.12;62.32;101272.25;7390421;19;1516;-36
2024/03/16 02:35:36;;;;;;;;;;;;;;;20.18;62.39;101264.50;7391202;19;1927;-36
2024/03/16 02:38:05;;;;;;;;;;;;;;;20.20;62.06;101275.97;7390567;19;1401;-35
2024/03/16 02:40:37;;;;;;;;;;;;;;;20.21;62.36;101277.69;7390453;19;1480;-35
2024/03/16 02:43:06;;;;;;;;;;;;;;;20.18;62.26;101283.31;7391703;19;1077;-35
2024/03/16 02:45:34;;;;;;;;;;;;;;;20.20;62.34;101278.66;7390364;19;2042;-35
2024/03/16 02:48:04;;;;;;;;;;;;;;;20.28;62.12;101283.38;7390326;19;1517;-35
2024/03/16 02:50:33;;;;;;;;;;;;;;;20.40;61.76;101282.31;7391166;19;1562;-36
2024/03/16 02:53:01;;;;;;;;;;;;;;;20.37;61.74;101284.41;7376038;19;1556;-35
2024/03/16 02:55:30;;;;;;;;;;;;;;;20.44;61.84;101285.59;7390853;19;1480;-36
2024/03/16 02:58:01;;;;;;;;;;;;;;;20.44;61.65;101270.31;7391841;19;1377;-36
2024/03/16 03:00:30;;;;;;;;;;;;;;;20.41;61.72;101267.91;7391084;19;1152;-37
2024/03/16 03:02:58;;;;;;;;;;;;;;;20.47;61.61;101274.56;7391353;19;1495;-35
2024/03/16 03:05:27;;;;;;;;;;;;;;;20.31;61.39;101229.38;7390801;19;1855;-36
2024/03/16 03:07:55;;;;;;;;;;;;;;;20.62;61.14;101281.34;7388954;19;1540;-35
2024/03/16 03:10:24;;;;;;;;;;;;;;;20.62;61.32;101267.91;7391059;19;1543;-35
2024/03/16 03:12:53;;;;;;;;;;;;;;;20.54;61.48;101275.75;7390587;19;1282;-35
2024/03/16 03:15:24;;;;;;;;;;;;;;;20.60;61.46;101286.00;7391001;19;1421;-35
2024/03/16 03:17:52;;;;;;;;;;;;;;;20.55;61.48;101277.47;7391248;19;1188;-36
2024/03/16 03:20:23;;;;;;;;;;;;;;;20.59;61.41;101270.88;7391000;19;1324;-35
2024/03/16 03:22:52;;;;;;;;;;;;;;;20.60;61.36;101275.25;7390568;19;1841;-35
2024/03/16 03:25:21;;;;;;;;;;;;;;;20.63;61.16;101272.31;7389889;19;1848;-35
2024/03/16 03:27:50;;;;;;;;;;;;;;;20.62;61.34;101275.97;7385625;19;1844;-35
2024/03/16 03:30:18;;;;;;;;;;;;;;;20.66;61.32;101287.31;7389023;19;1137;-37
2024/03/16 03:32:49;;;;;;;;;;;;;;;20.62;61.07;101273.28;7389997;19;1591;-36
2024/03/16 03:35:18;;;;;;;;;;;;;;;20.72;61.08;101278.69;7390199;19;1314;-36
2024/03/16 03:37:46;;;;;;;;;;;;;;;20.63;61.07;101283.06;7389344;19;1265;-36
2024/03/16 03:40:15;;;;;;;;;;;;;;;20.62;61.21;101281.34;7388285;19;1714;-35
2024/03/16 03:42:47;;;;;;;;;;;;;;;20.72;61.13;101293.97;7389835;19;1627;-35
2024/03/16 03:45:24;;;;;;;;;;;;;;;20.72;60.94;101283.22;7389413;19;1879;-35
2024/03/16 03:48:14;;;;;;;;;;;;;;;20.78;60.98;101293.44;7390296;19;1283;-35
2024/03/16 03:50:43;;;;;;;;;;;;;;;20.73;60.98;101287.59;7389283;19;1271;-35
2024/03/16 03:53:11;;;;;;;;;;;;;;;20.78;61.06;101304.19;7377054;19;1287;-35
2024/03/16 03:55:40;;;;;;;;;;;;;;;20.78;60.94;101307.72;7389663;19;1226;-35
2024/03/16 03:58:08;;;;;;;;;;;;;;;20.74;60.99;101295.53;7389388;19;1294;-35
2024/03/16 04:00:37;;;;;;;;;;;;;;;20.46;61.61;101292.53;7390059;19;1015;-36
2024/03/16 04:03:08;;;;;;;;;;;;;;;20.05;62.88;101306.78;7389885;19;1722;-35
2024/03/16 04:05:37;;;;;;;;;;;;;;;19.72;63.54;101294.38;7386901;19;1849;-36
2024/03/16 04:08:06;;;;;;;;;;;;;;;19.50;63.98;101305.97;7388507;19;1563;-35
2024/03/16 04:10:34;;;;;;;;;;;;;;;19.38;64.05;101303.34;7389320;19;1565;-35
2024/03/16 04:13:03;;;;;;;;;;;;;;;19.26;64.22;101296.31;7388553;19;1171;-35
2024/03/16 04:15:31;;;;;;;;;;;;;;;19.18;64.23;101301.41;7388549;19;1494;-35
2024/03/16 04:18:00;;;;;;;;;;;;;;;19.07;64.49;101316.53;7389114;19;1447;-35
2024/03/16 04:20:31;;;;;;;;;;;;;;;18.95;64.78;101322.88;7389759;19;1152;-35
2024/03/16 04:23:01;;;;;;;;;;;;;;;18.85;65.13;101321.91;7389059;19;1017;-35
2024/03/16 04:25:29;;;;;;;;;;;;;;;18.80;65.45;101324.06;7388051;19;1871;-35
2024/03/16 04:27:58;;;;;;;;;;;;;;;18.97;65.34;101322.75;7387324;19;2336;-35
2024/03/16 04:30:26;;;;;;;;;;;;;;;19.19;64.92;101311.16;7387800;19;1509;-35
2024/03/16 04:32:55;;;;;;;;;;;;;;;19.42;64.38;101303.94;7386445;19;1416;-35
2024/03/16 04:35:23;;;;;;;;;;;;;;;19.51;63.95;101315.75;7387484;19;1805;-35
2024/03/16 04:37:54;;;;;;;;;;;;;;;19.64;63.53;101313.78;7387477;19;1546;-36
2024/03/16 04:40:23;;;;;;;;;;;;;;;19.70;63.40;101317.78;7384140;19;1399;-36
2024/03/16 04:42:52;;;;;;;;;;;;;;;19.75;63.64;101321.78;7385594;19;1443;-36
2024/03/16 04:45:20;;;;;;;;;;;;;;;19.75;63.53;101327.16;7384509;19;1441;-36
2024/03/16 04:47:48;;;;;;;;;;;;;;;19.77;63.55;101319.00;7383554;19;1940;-36
2024/03/16 04:50:17;;;;;;;;;;;;;;;19.80;63.34;101316.06;7384385;19;1934;-36
2024/03/16 04:52:45;;;;;;;;;;;;;;;19.79;63.31;101328.63;7384467;19;1381;-36
2024/03/16 04:55:17;;;;;;;;;;;;;;;19.83;63.29;101323.84;7369232;19;1336;-36
2024/03/16 04:57:45;;;;;;;;;;;;;;;19.78;63.26;101332.28;7384434;19;1250;-36
2024/03/16 05:00:14;;;;;;;;;;;;;;;19.80;63.28;101308.03;7384324;19;1409;-36
2024/03/16 05:02:43;;;;;;;;;;;;;;;19.78;63.52;101329.59;7383466;19;1629;-36
2024/03/16 05:05:11;;;;;;;;;;;;;;;19.70;63.57;101318.63;7383099;19;1381;-36
2024/03/16 05:07:40;;;;;;;;;;;;;;;19.73;63.44;101323.75;7382431;19;1861;-36
2024/03/16 05:10:09;;;;;;;;;;;;;;;19.74;63.51;101335.38;7383126;19;1404;-36
2024/03/16 05:12:41;;;;;;;;;;;;;;;19.79;63.53;101339.34;7381420;19;1226;-36
2024/03/16 05:15:10;;;;;;;;;;;;;;;19.74;63.57;101338.91;7381145;19;1824;-36
2024/03/16 05:17:39;;;;;;;;;;;;;;;19.74;63.49;101336.22;7383653;19;1232;-36
2024/03/16 05:20:09;;;;;;;;;;;;;;;19.76;63.37;101347.66;7383099;19;1370;-37
2024/03/16 05:22:37;;;;;;;;;;;;;;;19.90;63.06;101351.91;7383262;19;1422;-35
2024/03/16 05:25:07;;;;;;;;;;;;;;;19.93;63.06;101354.31;7380777;19;1184;-37
2024/03/16 05:27:36;;;;;;;;;;;;;;;19.93;63.12;101350.78;7382422;19;1853;-37
2024/03/16 05:30:07;;;;;;;;;;;;;;;19.95;62.76;101355.03;7382951;19;1520;-36
2024/03/16 05:32:36;;;;;;;;;;;;;;;19.96;62.33;101358.59;7382843;19;1475;-36
2024/03/16 05:35:07;;;;;;;;;;;;;;;20.05;62.40;101360.50;7381560;19;1491;-37
2024/03/16 05:37:35;;;;;;;;;;;;;;;20.10;62.39;101363.66;7382277;19;1627;-36
2024/03/16 05:40:04;;;;;;;;;;;;;;;19.95;62.05;101363.09;7383978;19;1437;-36
2024/03/16 05:42:34;;;;;;;;;;;;;;;20.02;61.58;101371.50;7383281;19;1271;-36
2024/03/16 05:45:03;;;;;;;;;;;;;;;19.99;61.23;101355.63;7380741;19;1831;-36
2024/03/16 05:47:34;;;;;;;;;;;;;;;20.10;61.21;101363.66;7379998;19;1921;-36
2024/03/16 05:50:03;;;;;;;;;;;;;;;20.14;61.18;101354.38;7381950;19;1512;-36
2024/03/16 05:52:31;;;;;;;;;;;;;;;20.16;61.40;101359.63;7389798;19;1580;-36
2024/03/16 05:55:00;;;;;;;;;;;;;;;20.05;61.13;101360.50;7370594;19;1342;-36
2024/03/16 05:57:28;;;;;;;;;;;;;;;19.93;60.89;101356.16;7385884;19;1541;-36
2024/03/16 05:59:57;;;;;;;;;;;;;;;19.90;61.22;101351.91;7388013;19;1373;-36
2024/03/16 06:02:25;;;;;;;;;;;;;;;19.88;61.31;101342.28;7387556;19;1501;-36
2024/03/16 06:04:56;;;;;;;;;;;;;;;19.93;61.35;101357.00;7387775;19;1218;-36
2024/03/16 06:07:25;;;;;;;;;;;;;;;19.95;61.28;101368.47;7385586;19;1871;-36
2024/03/16 06:09:54;;;;;;;;;;;;;;;20.01;61.13;101348.31;7387256;19;1527;-36
2024/03/16 06:12:23;;;;;;;;;;;;;;;20.08;60.93;101364.78;7387456;19;1658;-36
2024/03/16 06:14:52;;;;;;;;;;;;;;;20.12;60.99;101359.00;7386954;19;1492;-36
2024/03/16 06:17:20;;;;;;;;;;;;;;;20.10;60.83;101358.28;7386841;19;1828;-36
2024/03/16 06:19:50;;;;;;;;;;;;;;;20.15;60.74;101357.91;7389725;19;1512;-36
2024/03/16 06:22:21;;;;;;;;;;;;;;;20.19;60.83;101362.91;7389974;19;1611;-36
2024/03/16 06:24:51;;;;;;;;;;;;;;;20.22;60.77;101357.25;7391003;19;1622;-36
2024/03/16 06:27:22;;;;;;;;;;;;;;;20.26;60.72;101364.06;7389188;19;1858;-35
2024/03/16 06:29:52;;;;;;;;;;;;;;;20.23;60.70;101358.97;7390911;19;1531;-36
2024/03/16 06:32:21;;;;;;;;;;;;;;;20.29;60.64;101365.63;7391296;19;1533;-36
2024/03/16 06:34:50;;;;;;;;;;;;;;;20.31;60.62;101360.97;7390946;19;1441;-36
2024/03/16 06:37:21;;;;;;;;;;;;;;;20.34;60.63;101355.38;7391003;19;1569;-36
2024/03/16 06:39:49;;;;;;;;;;;;;;;20.33;60.48;101374.28;7391503;19;1559;-36
2024/03/16 06:42:18;;;;;;;;;;;;;;;19.99;61.54;101382.47;7391610;19;1023;-36
2024/03/16 06:44:47;;;;;;;;;;;;;;;19.80;62.05;101378.63;7390506;19;1553;-36
2024/03/16 06:47:15;;;;;;;;;;;;;;;19.60;62.66;101392.81;7389942;19;1829;-36
2024/03/16 06:49:44;;;;;;;;;;;;;;;20.00;61.70;101389.56;7390852;19;1532;-37
2024/03/16 06:52:12;;;;;;;;;;;;;;;20.43;60.42;101381.47;7390596;19;1648;-36
2024/03/16 06:54:43;;;;;;;;;;;;;;;20.57;60.42;101388.34;7375391;19;1512;-36
2024/03/16 06:57:12;;;;;;;;;;;;;;;20.65;60.10;101383.19;7390921;19;1097;-36
2024/03/16 06:59:40;;;;;;;;;;;;;;;20.59;60.19;101389.09;7389832;19;1163;-36
2024/03/16 07:02:09;;;;;;;;;;;;;;;20.56;60.33;101383.94;7387385;19;1560;-36
2024/03/16 07:04:38;;;;;;;;;;;;;;;20.61;60.29;101373.69;7390159;19;1472;-36
2024/03/16 07:07:06;;;;;;;;;;;;;;;20.57;60.22;101387.47;7388963;19;1843;-36
2024/03/16 07:09:35;;;;;;;;;;;;;;;20.54;60.49;101385.91;7390421;19;1630;-36
2024/03/16 07:12:06;;;;;;;;;;;;;;;20.54;60.36;101385.91;7390428;19;1541;-35
2024/03/16 07:14:35;;;;;;;;;;;;;;;20.56;60.39;101375.88;7389571;19;1527;-36
2024/03/16 07:17:03;;;;;;;;;;;;;;;20.54;60.50;101385.91;7390847;19;1120;-36
2024/03/16 07:19:32;;;;;;;;;;;;;;;20.61;60.46;101378.19;7389922;19;1625;-36
2024/03/16 07:22:00;;;;;;;;;;;;;;;20.57;60.29;101393.72;7389846;19;1481;-36
2024/03/16 07:24:29;;;;;;;;;;;;;;;20.57;60.61;101382.97;7389297;19;1206;-36
2024/03/16 07:26:57;;;;;;;;;;;;;;;20.59;60.30;101380.16;7388294;19;1849;-36
2024/03/16 07:29:28;;;;;;;;;;;;;;;20.60;60.32;101380.03;7388736;19;1215;-36
2024/03/16 07:31:57;;;;;;;;;;;;;;;20.63;60.48;101393.22;7388966;19;1566;-36
2024/03/16 07:34:25;;;;;;;;;;;;;;;20.63;60.28;101382.47;7389705;19;1188;-36
2024/03/16 07:36:54;;;;;;;;;;;;;;;20.66;60.20;101392.94;7389185;19;1234;-36
2024/03/16 07:39:23;;;;;;;;;;;;;;;20.65;60.10;101391.25;7389053;19;1191;-36
2024/03/16 07:41:51;;;;;;;;;;;;;;;20.62;60.48;101391.50;7388960;19;1152;-35
2024/03/16 07:44:19;;;;;;;;;;;;;;;20.60;60.38;101382.72;7388260;19;1218;-36
2024/03/16 07:46:51;;;;;;;;;;;;;;;20.68;60.25;101383.91;7388160;19;2193;-36
2024/03/16 07:49:20;;;;;;;;;;;;;;;20.78;60.05;101391.03;7388731;19;1513;-35
2024/03/16 07:51:49;;;;;;;;;;;;;;;20.71;60.10;101391.69;7388444;19;1491;-35
2024/03/16 07:54:17;;;;;;;;;;;;;;;20.72;60.39;101380.81;7373224;19;1171;-35
2024/03/16 07:56:46;;;;;;;;;;;;;;;20.78;59.97;101376.75;7389619;19;1187;-36
2024/03/16 07:59:14;;;;;;;;;;;;;;;20.84;59.88;101395.91;7387818;19;1608;-36
2024/03/16 08:01:43;;;;;;;;;;;;;;;20.81;60.02;101380.03;7387499;19;1497;-35
2024/03/16 08:04:14;;;;;;;;;;;;;;;20.74;60.14;101378.84;7387854;19;1572;-36
2024/03/16 08:06:42;;;;;;;;;;;;;;;20.75;60.02;101385.06;7388148;19;1207;-36
2024/03/16 08:09:11;;;;;;;;;;;;;;;20.76;60.32;101390.31;7388115;19;1239;-35
2024/03/16 08:11:41;;;;;;;;;;;;;;;20.68;60.26;101375.84;7385315;19;1839;-35
2024/03/16 08:14:10;;;;;;;;;;;;;;;20.71;60.37;101380.94;7386828;19;1551;-35
2024/03/16 08:16:39;;;;;;;;;;;;;;;20.66;60.44;101387.56;7387949;19;989;-36
2024/03/16 08:19:08;;;;;;;;;;;;;;;20.64;60.46;101378.78;7385921;19;1456;-35
2024/03/16 08:21:39;;;;;;;;;;;;;;;20.82;60.05;101386.25;7386716;19;1707;-35
2024/03/16 08:24:08;;;;;;;;;;;;;;;20.96;59.72;101383.22;7386860;19;1513;-36
2024/03/16 08:26:36;;;;;;;;;;;;;;;20.95;59.70;101392.28;7386418;19;1414;-35
2024/03/16 08:29:05;;;;;;;;;;;;;;;20.92;59.91;101375.56;7386234;19;1903;-35
2024/03/16 08:31:33;;;;;;;;;;;;;;;20.96;59.72;101375.16;7386476;19;1551;-35
2024/03/16 08:34:02;;;;;;;;;;;;;;;20.94;59.74;101378.97;7386666;19;1433;-36
2024/03/16 08:36:31;;;;;;;;;;;;;;;20.86;59.75;101366.19;7386522;19;1488;-35
2024/03/16 08:39:03;;;;;;;;;;;;;;;20.88;59.90;101374.13;7386827;19;1007;-35
2024/03/16 08:41:31;;;;;;;;;;;;;;;20.85;60.05;101375.25;7386036;19;1477;-35
2024/03/16 08:44:00;;;;;;;;;;;;;;;20.81;60.20;101369.28;7386997;19;1413;-36
2024/03/16 08:46:28;;;;;;;;;;;;;;;20.82;60.08;101370.13;7385896;19;1116;-37
2024/03/16 08:48:57;;;;;;;;;;;;;;;20.85;59.89;101380.63;7385256;19;1874;-36
2024/03/16 08:51:25;;;;;;;;;;;;;;;21.08;59.44;101372.41;7385402;19;1935;-36
2024/03/16 08:53:54;;;;;;;;;;;;;;;21.20;59.02;101368.63;7386416;19;1621;-36
2024/03/16 08:56:28;;;;;;;;;;;;;;;21.29;58.72;101358.88;7371599;19;1087;-36
2024/03/16 08:58:56;;;;;;;;;;;;;;;21.38;58.69;101358.91;7386047;19;1477;-36
2024/03/16 09:01:26;;;;;;;;;;;;;;;21.49;58.37;101349.06;7385348;19;1278;-36
2024/03/16 09:03:54;;;;;;;;;;;;;;;21.56;58.18;101348.38;7385475;19;1073;-36
2024/03/16 09:06:23;;;;;;;;;;;;;;;21.55;58.19;101345.84;7385044;19;1465;-35
2024/03/16 09:08:51;;;;;;;;;;;;;;;21.56;58.21;101356.44;7383848;19;1871;-35
2024/03/16 09:11:20;;;;;;;;;;;;;;;21.63;58.04;101346.00;7385564;19;1422;-35
2024/03/16 09:13:51;;;;;;;;;;;;;;;21.59;58.25;101358.03;7384933;19;1468;-36
2024/03/16 09:16:19;;;;;;;;;;;;;;;21.62;57.98;101346.97;7384657;19;1568;-35
2024/03/16 09:18:48;;;;;;;;;;;;;;;21.44;58.62;101361.09;7385304;19;1520;-35
2024/03/16 09:21:16;;;;;;;;;;;;;;;21.31;58.98;101348.81;7385710;19;1493;-36
2024/03/16 09:23:45;;;;;;;;;;;;;;;21.32;58.96;101361.31;7386381;19;1104;-35
2024/03/16 09:26:13;;;;;;;;;;;;;;;21.23;59.20;101352.22;7389051;19;1033;-35
2024/03/16 09:28:42;;;;;;;;;;;;;;;21.19;59.32;101351.63;7390297;19;1865;-35
2024/03/16 09:31:13;;;;;;;;;;;;;;;21.17;59.53;101347.38;7391932;19;1584;-35
2024/03/16 09:33:41;;;;;;;;;;;;;;;21.14;59.53;101347.66;7392101;19;1658;-35
2024/03/16 09:36:10;;;;;;;;;;;;;;;21.12;59.54;101344.25;7392842;19;1219;-35
2024/03/16 09:38:39;;;;;;;;;;;;;;;21.11;59.64;101339.84;7392618;19;1552;-35
2024/03/16 09:41:07;;;;;;;;;;;;;;;21.06;59.71;101346.47;7392861;19;1632;-35
2024/03/16 09:43:36;;;;;;;;;;;;;;;20.99;59.97;101339.06;7392700;19;1423;-36
2024/03/16 09:46:05;;;;;;;;;;;;;;;20.98;59.93;101346.31;7392639;19;1188;-36
2024/03/16 09:48:37;;;;;;;;;;;;;;;21.00;59.84;101360.47;7391798;19;1859;-36
2024/03/16 09:51:05;;;;;;;;;;;;;;;20.98;59.95;101349.00;7392522;19;1407;-36
2024/03/16 09:53:35;;;;;;;;;;;;;;;20.95;59.92;101351.97;7393451;19;1109;-36
2024/03/16 09:56:07;;;;;;;;;;;;;;;20.98;59.90;101349.00;7376764;19;1450;-36
2024/03/16 09:58:36;;;;;;;;;;;;;;;21.02;59.90;101339.66;7392147;19;1651;-36
2024/03/16 10:01:06;;;;;;;;;;;;;;;21.06;59.70;101341.09;7392012;19;1506;-36
2024/03/16 10:03:37;;;;;;;;;;;;;;;21.04;59.68;101335.00;7392277;19;1520;-35
2024/03/16 10:06:08;;;;;;;;;;;;;;;21.06;59.65;101335.72;7391161;19;1549;-36
2024/03/16 10:08:37;;;;;;;;;;;;;;;21.14;59.33;101347.66;7390860;19;1873;-35
2024/03/16 10:11:12;;;;;;;;;;;;;;;21.15;59.52;101335.88;7392140;19;1862;-35
2024/03/16 10:13:41;;;;;;;;;;;;;;;21.19;59.49;101340.03;7391938;19;1555;-36
2024/03/16 10:16:09;;;;;;;;;;;;;;;21.24;59.41;101332.38;7391818;19;1581;-35
2024/03/16 10:18:40;;;;;;;;;;;;;;;21.21;59.40;101332.69;7393503;19;1591;-35
2024/03/16 10:21:09;;;;;;;;;;;;;;;21.27;59.24;101332.13;7393404;19;1528;-35
2024/03/16 10:23:38;;;;;;;;;;;;;;;21.31;59.12;101338.06;7393818;19;1112;-36
2024/03/16 10:26:09;;;;;;;;;;;;;;;21.17;59.53;101310.59;7392099;19;1801;-35
2024/03/16 10:28:37;;;;;;;;;;;;;;;21.15;59.51;101327.81;7390305;19;2031;-35
2024/03/16 10:31:06;;;;;;;;;;;;;;;21.20;59.49;101336.34;7391867;19;1639;-36
2024/03/16 10:33:41;;;;;;;;;;;;;;;21.12;59.59;101328.94;7392524;19;1551;-36
2024/03/16 10:36:15;;;;;;;;;;;;;;;21.15;59.70;101327.81;7391007;19;1497;-36
2024/03/16 10:38:45;;;;;;;;;;;;;;;21.17;59.55;101323.16;7391051;19;1443;-36
2024/03/16 10:41:16;;;;;;;;;;;;;;;21.14;59.67;101310.00;7390866;19;1544;-36
2024/03/16 10:43:45;;;;;;;;;;;;;;;21.17;59.67;101325.84;7389758;19;1218;-36
2024/03/16 10:46:15;;;;;;;;;;;;;;;21.16;59.62;101314.25;7389968;19;1584;-36
2024/03/16 10:48:47;;;;;;;;;;;;;;;21.13;59.67;101329.78;7389388;19;1822;-36
2024/03/16 10:51:18;;;;;;;;;;;;;;;21.12;59.90;101326.25;7388017;19;1545;-36
2024/03/16 10:53:48;;;;;;;;;;;;;;;21.10;59.77;101324.69;7391287;19;1215;-36
2024/03/16 10:56:17;;;;;;;;;;;;;;;21.09;59.69;101320.28;7374756;19;1526;-36
2024/03/16 10:58:46;;;;;;;;;;;;;;;21.09;59.83;101314.91;7390034;19;1485;-36
2024/03/16 11:01:18;;;;;;;;;;;;;;;21.12;59.83;101317.34;7390373;19;1447;-35
2024/03/16 11:03:54;;;;;;;;;;;;;;;21.14;59.76;101321.59;7390065;19;1540;-35
2024/03/16 11:06:23;;;;;;;;;;;;;;;21.10;59.75;101313.94;7389521;19;1584;-36
2024/03/16 11:08:52;;;;;;;;;;;;;;;21.14;59.74;101321.59;7388192;19;1886;-36
2024/03/16 11:11:21;;;;;;;;;;;;;;;21.13;59.91;101319.03;7389983;19;1087;-35
2024/03/16 11:14:13;;;;;;;;;;;;;;;21.10;59.77;101314.78;7389880;19;989;-36
2024/03/16 11:16:46;;;;;;;;;;;;;;;21.14;59.67;101299.25;7388339;19;1313;-36
2024/03/16 11:19:21;;;;;;;;;;;;;;;21.11;59.78;101295.00;7388625;19;1563;-36
2024/03/16 11:21:52;;;;;;;;;;;;;;;21.17;59.66;101298.94;7389184;19;1203;-35
2024/03/16 11:24:20;;;;;;;;;;;;;;;21.17;59.64;101297.13;7388792;19;1568;-35
2024/03/16 11:26:49;;;;;;;;;;;;;;;21.18;59.77;101295.28;7387799;19;1709;-36
2024/03/16 11:29:16;;;;;;;;;;;;;;;21.21;59.47;101300.41;7387196;19;1874;-36
2024/03/16 11:31:46;;;;;;;;;;;;;;;21.23;59.58;101287.66;7389054;19;992;-36
2024/03/16 11:34:16;;;;;;;;;;;;;;;21.20;59.64;101272.63;7386971;19;1000;-35
2024/03/16 11:36:50;;;;;;;;;;;;;;;21.16;59.69;101265.84;7388910;19;1670;-35
2024/03/16 11:39:16;;;;;;;;;;;;;;;21.19;59.63;101280.88;7388859;19;1215;-36
2024/03/16 11:41:45;;;;;;;;;;;;;;;21.20;59.48;101258.34;7388951;19;1508;-36
2024/03/16 11:44:15;;;;;;;;;;;;;;;21.22;59.62;101280.56;7388299;19;1449;-36
2024/03/16 11:46:44;;;;;;;;;;;;;;;21.24;59.54;101281.28;7386148;19;1563;-36
2024/03/16 11:49:10;;;;;;;;;;;;;;;21.20;59.71;101277.16;7384822;19;1853;-36
2024/03/16 11:51:41;;;;;;;;;;;;;;;21.20;59.67;101275.31;7388462;19;1413;-36
2024/03/16 11:54:10;;;;;;;;;;;;;;;21.25;59.52;101269.56;7387275;19;1596;-36
2024/03/16 11:56:39;;;;;;;;;;;;;;;21.25;59.50;101269.56;7373566;19;1237;-36
2024/03/16 11:59:05;;;;;;;;;;;;;;;21.26;59.48;101265.84;7387218;19;1152;-36
2024/03/16 12:01:37;;;;;;;;;;;;;;;21.21;59.59;101258.22;7388097;19;1552;-36
2024/03/16 12:04:04;;;;;;;;;;;;;;;21.17;59.85;101262.16;7387645;19;1632;-36
2024/03/16 12:06:33;;;;;;;;;;;;;;;21.27;59.47;101256.81;7387806;19;1503;-35
2024/03/16 12:08:59;;;;;;;;;;;;;;;21.25;59.58;101264.19;7386281;19;1856;-36
2024/03/16 12:11:32;;;;;;;;;;;;;;;21.25;59.58;101256.09;7386577;19;1619;-36
2024/03/16 12:14:10;;;;;;;;;;;;;;;21.27;59.51;101256.81;7389229;19;972;-35
2024/03/16 12:16:39;;;;;;;;;;;;;;;21.22;59.51;101251.00;7386423;19;1202;-35
2024/03/16 12:19:09;;;;;;;;;;;;;;;21.28;59.43;101247.75;7386056;19;1796;-36
2024/03/16 12:21:43;;;;;;;;;;;;;;;21.30;59.43;101255.69;7387014;19;1473;-36
2024/03/16 12:24:10;;;;;;;;;;;;;;;21.25;59.49;101253.41;7387977;19;1410;-35
2024/03/16 12:26:43;;;;;;;;;;;;;;;21.31;59.47;101249.28;7385468;19;2189;-36
2024/03/16 12:29:09;;;;;;;;;;;;;;;21.35;59.32;101245.38;7385862;19;1854;-36
2024/03/16 12:31:39;;;;;;;;;;;;;;;21.29;59.45;101232.44;7386625;19;1147;-36
2024/03/16 12:34:05;;;;;;;;;;;;;;;21.32;59.61;101232.19;7386350;19;1924;-36
2024/03/16 12:36:33;;;;;;;;;;;;;;;21.33;59.42;101234.75;7387105;19;1533;-36
2024/03/16 12:39:00;;;;;;;;;;;;;;;21.29;59.60;101227.94;7386875;19;1555;-35
2024/03/16 12:41:29;;;;;;;;;;;;;;;21.31;59.39;101230.47;7384728;19;1690;-36
2024/03/16 12:43:58;;;;;;;;;;;;;;;21.26;59.57;101226.34;7386329;19;1829;-36
2024/03/16 12:46:27;;;;;;;;;;;;;;;21.26;59.78;101229.03;7386296;19;1600;-38
2024/03/16 12:48:53;;;;;;;;;;;;;;;21.28;59.65;101228.06;7384894;19;1855;-36
2024/03/16 12:51:21;;;;;;;;;;;;;;;21.32;59.64;101226.81;7385849;19;1168;-35
2024/03/16 12:53:47;;;;;;;;;;;;;;;21.38;59.58;101232.47;7385869;19;1627;-36
2024/03/16 12:56:15;;;;;;;;;;;;;;;21.25;59.79;101221.13;7372322;19;1746;-36
2024/03/16 12:58:41;;;;;;;;;;;;;;;21.28;59.69;101220.00;7385329;19;1214;-36